Time;durP1;ratioP1;P1;durP2;ratioP2;P2;SDS_P1;SDS_P2;PMS_P1;PMS_P2;Temp;Humidity;BMP_temperature;BMP_pressure;BME280_temperature;BME280_humidity;BME280_pressure;Samples;Min_cycle;Max_cycle;Signal;HPM_P1;HPM_P2
2022/10/16 00:01:30;;;;;;;8.65;2.50;;;;;;;;;;5048372;28;20226;-68
2022/10/16 00:03:56;;;;;;;8.30;2.95;;;;;;;;;;5031394;28;20273;-68
2022/10/16 00:06:23;;;;;;;7.38;3.00;;;;;;;;;;5028801;28;20626;-68
2022/10/16 00:08:49;;;;;;;7.75;3.08;;;;;;;;;;5031485;28;20206;-68
2022/10/16 00:11:26;;;;;;;7.63;3.63;;;;;;;;;;5046126;28;20259;-68
2022/10/16 00:13:56;;;;;;;7.00;3.03;;;;;;;;;;5039367;28;20180;-68
2022/10/16 00:16:21;;;;;;;8.60;3.83;;;;;;;;;;5043083;28;20545;-68
2022/10/16 00:18:47;;;;;;;6.80;3.20;;;;;;;;;;5029511;28;20266;-68
2022/10/16 00:21:19;;;;;;;6.45;2.85;;;;;;;;;;5043941;28;20181;-68
2022/10/16 00:23:45;;;;;;;10.43;2.95;;;;;;;;;;5041024;28;20242;-68
2022/10/16 00:26:16;;;;;;;10.75;2.75;;;;;;;;;;5047503;28;20264;-68
2022/10/16 00:28:41;;;;;;;5.95;2.80;;;;;;;;;;5030787;28;20197;-68
2022/10/16 00:31:09;;;;;;;7.30;2.78;;;;;;;;;;5041386;28;20248;-68
2022/10/16 00:33:36;;;;;;;5.22;2.35;;;;;;;;;;5042868;28;20454;-68
2022/10/16 00:36:03;;;;;;;6.90;2.97;;;;;;;;;;5039120;28;20204;-68
2022/10/16 00:38:28;;;;;;;12.77;4.40;;;;;;;;;;5028834;28;20657;-68
2022/10/16 00:40:54;;;;;;;10.30;3.35;;;;;;;;;;5031464;28;20272;-68
2022/10/16 00:43:49;;;;;;;12.65;3.30;;;;;;;;;;5032431;28;20205;-68
2022/10/16 00:46:14;;;;;;;9.27;3.20;;;;;;;;;;5036078;28;20201;-69
2022/10/16 00:48:39;;;;;;;6.85;3.30;;;;;;;;;;5037860;28;20278;-68
2022/10/16 00:51:07;;;;;;;9.52;3.03;;;;;;;;;;5034193;28;20186;-68
2022/10/16 00:53:33;;;;;;;5.63;3.03;;;;;;;;;;5040110;28;20182;-68
2022/10/16 00:55:59;;;;;;;10.73;3.25;;;;;;;;;;5030896;28;20190;-68
2022/10/16 00:58:25;;;;;;;8.05;2.78;;;;;;;;;;5034369;28;20253;-68
2022/10/16 01:00:50;;;;;;;7.75;2.70;;;;;;;;;;5032193;28;20261;-68
2022/10/16 01:03:41;;;;;;;8.32;3.08;;;;;;;;;;5037635;28;20178;-68
2022/10/16 01:06:21;;;;;;;7.00;2.63;;;;;;;;;;5032324;28;20217;-68
2022/10/16 01:09:12;;;;;;;7.30;2.60;;;;;;;;;;5040029;28;20228;-69
2022/10/16 01:11:55;;;;;;;5.93;2.83;;;;;;;;;;5042790;28;20265;-68
2022/10/16 01:14:57;;;;;;;7.90;2.60;;;;;;;;;;5039855;28;20181;-68
2022/10/16 01:17:32;;;;;;;6.38;2.30;;;;;;;;;;5019708;28;20672;-68
2022/10/16 01:20:07;;;;;;;5.13;2.40;;;;;;;;;;5041681;28;20180;-68
2022/10/16 01:23:16;;;;;;;8.73;2.70;;;;;;;;;;5035884;28;20312;-68
2022/10/16 01:25:53;;;;;;;7.20;2.70;;;;;;;;;;5025392;28;20190;-68
2022/10/16 01:28:23;;;;;;;6.53;2.40;;;;;;;;;;5038680;28;20597;-68
2022/10/16 01:30:53;;;;;;;4.80;2.80;;;;;;;;;;5029957;28;20189;-68
2022/10/16 01:33:28;;;;;;;6.50;3.22;;;;;;;;;;5039477;28;20570;-68
2022/10/16 01:35:59;;;;;;;9.35;3.35;;;;;;;;;;5047421;28;20189;-72
2022/10/16 01:38:28;;;;;;;7.65;3.00;;;;;;;;;;5039301;28;20174;-68
2022/10/16 01:41:00;;;;;;;9.70;3.33;;;;;;;;;;5037396;28;20186;-68
2022/10/16 01:43:35;;;;;;;6.25;3.78;;;;;;;;;;5039190;28;20716;-68
2022/10/16 01:46:01;;;;;;;6.55;2.92;;;;;;;;;;5035986;28;20670;-68
2022/10/16 01:48:26;;;;;;;8.48;3.78;;;;;;;;;;5030677;28;20289;-68
2022/10/16 01:50:58;;;;;;;8.93;3.60;;;;;;;;;;5042141;28;20272;-68
2022/10/16 01:53:25;;;;;;;9.15;4.25;;;;;;;;;;5039154;28;20178;-68
2022/10/16 01:55:54;;;;;;;5.90;3.55;;;;;;;;;;5043831;28;20224;-69
2022/10/16 01:58:20;;;;;;;8.30;3.63;;;;;;;;;;5031334;28;20178;-68
2022/10/16 02:00:47;;;;;;;11.07;3.97;;;;;;;;;;5036861;28;20186;-69
2022/10/16 02:03:15;;;;;;;9.73;4.35;;;;;;;;;;5030717;28;20646;-68
2022/10/16 02:05:47;;;;;;;7.55;4.05;;;;;;;;;;5050325;28;20184;-68
2022/10/16 02:08:13;;;;;;;14.68;4.97;;;;;;;;;;5049795;28;20281;-68
2022/10/16 02:10:39;;;;;;;10.50;4.22;;;;;;;;;;5050632;28;20181;-68
2022/10/16 02:13:32;;;;;;;7.55;4.13;;;;;;;;;;5040098;28;20632;-68
2022/10/16 02:15:58;;;;;;;10.65;4.57;;;;;;;;;;5046720;28;20281;-68
2022/10/16 02:18:28;;;;;;;9.95;5.43;;;;;;;;;;5046557;28;20177;-68
2022/10/16 02:21:18;;;;;;;9.73;5.78;;;;;;;;;;5033927;28;20542;-68
2022/10/16 02:23:59;;;;;;;6.03;4.47;;;;;;;;;;5043809;28;20181;-68
2022/10/16 02:26:37;;;;;;;8.70;5.43;;;;;;;;;;5030911;28;20563;-68
2022/10/16 02:29:08;;;;;;;9.32;4.72;;;;;;;;;;5030635;28;20224;-68
2022/10/16 02:31:38;;;;;;;8.25;5.28;;;;;;;;;;5043785;28;20705;-68
2022/10/16 02:34:05;;;;;;;10.75;5.00;;;;;;;;;;5034945;28;20696;-68
2022/10/16 02:36:32;;;;;;;8.70;5.45;;;;;;;;;;5038705;28;20182;-68
2022/10/16 02:39:01;;;;;;;11.48;5.57;;;;;;;;;;5031301;28;20295;-68
2022/10/16 02:41:27;;;;;;;11.18;5.32;;;;;;;;;;5043349;28;20638;-68
2022/10/16 02:43:52;;;;;;;9.27;4.97;;;;;;;;;;5041979;28;20173;-68
2022/10/16 02:46:18;;;;;;;8.35;5.00;;;;;;;;;;5037912;28;20323;-68
2022/10/16 02:48:44;;;;;;;9.60;4.95;;;;;;;;;;5049407;28;20550;-68
2022/10/16 02:51:09;;;;;;;6.93;4.90;;;;;;;;;;5035483;28;20191;-68
2022/10/16 02:53:34;;;;;;;7.30;5.68;;;;;;;;;;5037733;28;20218;-69
2022/10/16 02:56:00;;;;;;;8.10;5.25;;;;;;;;;;5044312;28;20192;-68
2022/10/16 02:58:25;;;;;;;9.45;5.43;;;;;;;;;;5032217;28;20194;-69
2022/10/16 03:00:50;;;;;;;7.82;5.28;;;;;;;;;;5030308;28;20185;-68
2022/10/16 03:03:16;;;;;;;8.10;5.28;;;;;;;;;;5030448;28;20189;-68
2022/10/16 03:05:45;;;;;;;7.63;5.07;;;;;;;;;;5029027;28;20268;-68
2022/10/16 03:08:11;;;;;;;9.77;5.55;;;;;;;;;;5042974;28;20201;-68
2022/10/16 03:10:36;;;;;;;6.97;4.85;;;;;;;;;;5028154;28;20185;-68
2022/10/16 03:13:02;;;;;;;9.00;5.00;;;;;;;;;;5029386;28;20209;-68
2022/10/16 03:15:28;;;;;;;6.80;4.07;;;;;;;;;;5042711;28;20178;-68
2022/10/16 03:17:54;;;;;;;7.07;4.55;;;;;;;;;;5029883;28;20697;-67
2022/10/16 03:20:19;;;;;;;6.97;4.70;;;;;;;;;;5034509;28;20269;-73
2022/10/16 03:22:45;;;;;;;6.43;4.22;;;;;;;;;;5046184;28;20188;-68
2022/10/16 03:25:10;;;;;;;5.70;4.38;;;;;;;;;;5034418;28;20189;-68
2022/10/16 03:27:35;;;;;;;5.43;4.22;;;;;;;;;;5037747;28;20210;-67
2022/10/16 03:30:01;;;;;;;7.63;4.53;;;;;;;;;;5029333;28;20178;-68
2022/10/16 03:32:28;;;;;;;9.73;4.72;;;;;;;;;;5028865;28;20305;-68
2022/10/16 03:34:54;;;;;;;7.43;4.30;;;;;;;;;;5037321;28;20206;-68
2022/10/16 03:37:19;;;;;;;7.80;4.50;;;;;;;;;;5029147;28;20285;-68
2022/10/16 03:39:45;;;;;;;5.75;3.83;;;;;;;;;;5029692;28;20189;-68
2022/10/16 03:42:10;;;;;;;9.80;3.90;;;;;;;;;;5027908;28;20173;-68
2022/10/16 03:44:35;;;;;;;5.18;3.65;;;;;;;;;;5039853;28;20185;-67
2022/10/16 03:47:01;;;;;;;5.32;4.10;;;;;;;;;;5033634;28;20517;-67
2022/10/16 03:49:26;;;;;;;9.57;3.97;;;;;;;;;;5043063;28;20181;-68
2022/10/16 03:51:52;;;;;;;7.03;4.10;;;;;;;;;;5042284;28;20185;-68
2022/10/16 03:54:17;;;;;;;6.63;4.00;;;;;;;;;;5033952;28;20213;-68
2022/10/16 03:56:42;;;;;;;5.53;3.90;;;;;;;;;;5032840;28;20657;-68
2022/10/16 03:59:08;;;;;;;7.18;3.70;;;;;;;;;;5028990;28;20185;-68
2022/10/16 04:01:33;;;;;;;6.35;3.33;;;;;;;;;;5029672;28;20188;-68
2022/10/16 04:03:59;;;;;;;7.90;4.30;;;;;;;;;;5036475;28;20264;-68
2022/10/16 04:06:24;;;;;;;6.63;4.28;;;;;;;;;;5048381;28;20665;-68
2022/10/16 04:08:49;;;;;;;10.27;3.85;;;;;;;;;;5033955;28;20201;-68
2022/10/16 04:11:14;;;;;;;6.50;3.60;;;;;;;;;;5047475;28;20528;-68
2022/10/16 04:13:41;;;;;;;6.05;3.90;;;;;;;;;;5033342;28;20181;-68
2022/10/16 04:16:06;;;;;;;4.28;3.13;;;;;;;;;;5040774;28;20292;-68
2022/10/16 04:18:32;;;;;;;7.13;3.65;;;;;;;;;;5047881;28;20661;-68
2022/10/16 04:21:02;;;;;;;4.65;3.42;;;;;;;;;;5043174;28;20617;-68
2022/10/16 04:23:28;;;;;;;3.78;3.42;;;;;;;;;;5050930;28;20181;-68
2022/10/16 04:25:53;;;;;;;5.40;3.28;;;;;;;;;;5051446;28;20258;-68
2022/10/16 04:28:18;;;;;;;5.47;3.40;;;;;;;;;;5043187;28;20228;-67
2022/10/16 04:30:44;;;;;;;8.95;3.50;;;;;;;;;;5035941;28;20174;-68
2022/10/16 04:33:09;;;;;;;4.55;3.55;;;;;;;;;;5031789;28;20250;-68
2022/10/16 04:35:35;;;;;;;5.45;4.03;;;;;;;;;;5047570;28;20389;-68
2022/10/16 04:38:00;;;;;;;6.45;3.67;;;;;;;;;;5040109;28;20182;-68
2022/10/16 04:40:26;;;;;;;8.18;4.03;;;;;;;;;;5042544;28;20181;-68
2022/10/16 04:42:51;;;;;;;7.40;3.83;;;;;;;;;;5037007;28;20205;-68
2022/10/16 04:45:17;;;;;;;6.47;3.60;;;;;;;;;;5035828;28;20378;-68
2022/10/16 04:47:42;;;;;;;6.68;3.88;;;;;;;;;;5034936;28;20209;-68
2022/10/16 04:50:08;;;;;;;6.93;3.70;;;;;;;;;;5038949;28;20216;-68
2022/10/16 04:52:33;;;;;;;8.55;3.47;;;;;;;;;;5050707;28;20250;-68
2022/10/16 04:55:01;;;;;;;7.40;4.05;;;;;;;;;;5034857;28;20201;-68
2022/10/16 04:57:28;;;;;;;4.72;3.85;;;;;;;;;;5043188;28;20190;-68
2022/10/16 04:59:53;;;;;;;5.63;3.55;;;;;;;;;;5040493;28;20182;-68
2022/10/16 05:02:19;;;;;;;7.85;4.07;;;;;;;;;;5033844;28;20197;-68
2022/10/16 05:04:44;;;;;;;6.75;3.50;;;;;;;;;;5031719;28;20678;-68
2022/10/16 05:07:09;;;;;;;5.40;3.30;;;;;;;;;;5032159;28;20194;-67
2022/10/16 05:09:35;;;;;;;6.78;3.40;;;;;;;;;;5038185;28;20177;-68
2022/10/16 05:12:00;;;;;;;4.57;3.20;;;;;;;;;;5035336;28;20188;-68
2022/10/16 05:14:25;;;;;;;6.55;3.38;;;;;;;;;;5042362;28;20174;-68
2022/10/16 05:16:51;;;;;;;5.82;3.22;;;;;;;;;;5039032;28;20244;-68
2022/10/16 05:19:17;;;;;;;3.63;2.88;;;;;;;;;;5034387;28;20179;-67
2022/10/16 05:21:42;;;;;;;5.45;3.25;;;;;;;;;;5036600;28;20609;-68
2022/10/16 05:24:07;;;;;;;5.03;2.92;;;;;;;;;;5040953;28;20675;-68
2022/10/16 05:26:32;;;;;;;5.97;3.30;;;;;;;;;;5033844;28;20650;-68
2022/10/16 05:28:58;;;;;;;5.55;3.08;;;;;;;;;;5041039;28;20248;-67
2022/10/16 05:31:23;;;;;;;5.00;3.42;;;;;;;;;;5039434;28;20220;-68
2022/10/16 05:33:48;;;;;;;4.32;3.22;;;;;;;;;;5033578;28;20174;-67
2022/10/16 05:36:14;;;;;;;5.47;3.20;;;;;;;;;;5038672;28;20228;-68
2022/10/16 05:38:40;;;;;;;6.50;3.42;;;;;;;;;;5037421;28;20253;-67
2022/10/16 05:41:05;;;;;;;4.85;3.20;;;;;;;;;;5041755;28;20182;-67
2022/10/16 05:43:31;;;;;;;7.82;3.50;;;;;;;;;;5039912;28;20185;-68
2022/10/16 05:45:59;;;;;;;6.05;3.00;;;;;;;;;;5045136;28;20197;-68
2022/10/16 05:48:24;;;;;;;4.40;3.33;;;;;;;;;;5041610;28;20196;-68
2022/10/16 05:51:02;;;;;;;4.22;3.60;;;;;;;;;;5046613;28;20788;-68
2022/10/16 05:53:29;;;;;;;5.85;3.15;;;;;;;;;;5044678;28;20197;-68
2022/10/16 05:55:55;;;;;;;5.65;3.65;;;;;;;;;;5037447;28;20650;-68
2022/10/16 05:58:22;;;;;;;6.85;3.50;;;;;;;;;;5036043;28;20174;-68
2022/10/16 06:01:02;;;;;;;7.45;3.63;;;;;;;;;;5037239;28;20292;-68
2022/10/16 06:03:27;;;;;;;5.85;3.47;;;;;;;;;;5039901;28;20181;-68
2022/10/16 06:05:53;;;;;;;5.82;3.00;;;;;;;;;;5040699;28;20586;-68
2022/10/16 06:08:21;;;;;;;6.30;3.33;;;;;;;;;;5029983;28;20198;-68
2022/10/16 06:10:46;;;;;;;6.10;3.22;;;;;;;;;;5031991;28;20178;-68
2022/10/16 06:13:13;;;;;;;5.07;3.25;;;;;;;;;;5035821;28;20193;-68
2022/10/16 06:15:41;;;;;;;4.72;3.22;;;;;;;;;;5036901;28;20166;-68
2022/10/16 06:18:06;;;;;;;4.47;2.90;;;;;;;;;;5031265;28;20205;-68
2022/10/16 06:20:32;;;;;;;3.55;2.75;;;;;;;;;;5027909;28;20185;-69
2022/10/16 06:22:57;;;;;;;4.78;3.15;;;;;;;;;;5038976;28;20181;-68
2022/10/16 06:25:22;;;;;;;4.70;3.05;;;;;;;;;;5033499;28;20270;-68
2022/10/16 06:27:48;;;;;;;7.53;3.38;;;;;;;;;;5029382;28;20285;-68
2022/10/16 06:30:13;;;;;;;6.72;3.28;;;;;;;;;;5034169;28;20202;-68
2022/10/16 06:32:39;;;;;;;5.03;2.90;;;;;;;;;;5035927;28;20230;-67
2022/10/16 06:35:04;;;;;;;6.47;3.28;;;;;;;;;;5030856;28;20185;-69
2022/10/16 06:37:30;;;;;;;4.50;3.10;;;;;;;;;;5034655;28;20181;-69
2022/10/16 06:39:55;;;;;;;11.40;3.38;;;;;;;;;;5035332;28;20264;-67
2022/10/16 06:42:21;;;;;;;7.22;3.33;;;;;;;;;;5035574;28;20316;-68
2022/10/16 06:44:46;;;;;;;5.95;3.38;;;;;;;;;;5037756;28;20169;-67
2022/10/16 06:47:11;;;;;;;4.93;3.15;;;;;;;;;;5037679;28;20177;-68
2022/10/16 06:49:37;;;;;;;10.38;3.30;;;;;;;;;;5039691;28;20194;-67
2022/10/16 06:52:02;;;;;;;6.70;3.20;;;;;;;;;;5036426;28;20177;-68
2022/10/16 06:54:28;;;;;;;7.78;2.90;;;;;;;;;;5035083;28;20186;-68
2022/10/16 06:56:54;;;;;;;6.35;3.40;;;;;;;;;;5029846;28;20178;-67
2022/10/16 06:59:20;;;;;;;4.20;3.28;;;;;;;;;;5029465;28;20665;-67
2022/10/16 07:01:46;;;;;;;8.63;3.47;;;;;;;;;;5029706;28;20251;-69
2022/10/16 07:04:11;;;;;;;9.20;4.00;;;;;;;;;;5027463;28;20802;-68
2022/10/16 07:06:37;;;;;;;9.23;3.85;;;;;;;;;;5031185;28;20182;-68
2022/10/16 07:09:05;;;;;;;6.10;3.08;;;;;;;;;;5030078;28;20198;-68
2022/10/16 07:11:31;;;;;;;6.05;3.45;;;;;;;;;;5031079;28;20256;-68
2022/10/16 07:13:57;;;;;;;4.40;3.05;;;;;;;;;;5026818;28;20269;-68
2022/10/16 07:16:25;;;;;;;7.72;3.30;;;;;;;;;;5032745;28;20228;-68
2022/10/16 07:18:57;;;;;;;4.28;3.40;;;;;;;;;;5032065;28;20577;-68
2022/10/16 07:21:22;;;;;;;3.42;3.10;;;;;;;;;;5028591;28;20476;-68
2022/10/16 07:23:51;;;;;;;5.75;3.20;;;;;;;;;;5030702;28;20184;-68
2022/10/16 07:26:17;;;;;;;5.43;2.83;;;;;;;;;;5038548;28;20181;-68
2022/10/16 07:28:43;;;;;;;8.85;3.15;;;;;;;;;;5032778;28;20198;-68
2022/10/16 07:31:12;;;;;;;4.40;2.72;;;;;;;;;;5029846;28;20509;-68
2022/10/16 07:33:41;;;;;;;5.78;2.40;;;;;;;;;;5031934;28;20178;-68
2022/10/16 07:36:07;;;;;;;6.15;3.08;;;;;;;;;;5030940;28;20270;-68
2022/10/16 07:38:32;;;;;;;7.40;2.78;;;;;;;;;;5026246;28;20674;-68
2022/10/16 07:40:59;;;;;;;4.55;2.38;;;;;;;;;;5031247;28;20189;-68
2022/10/16 07:43:25;;;;;;;9.20;2.85;;;;;;;;;;5035446;28;20197;-67
2022/10/16 07:45:51;;;;;;;3.72;2.20;;;;;;;;;;5037381;28;20257;-68
2022/10/16 07:48:17;;;;;;;7.20;2.42;;;;;;;;;;5025520;28;20209;-67
2022/10/16 07:50:43;;;;;;;4.07;2.25;;;;;;;;;;5039762;28;20638;-68
2022/10/16 07:53:10;;;;;;;6.85;2.35;;;;;;;;;;5028383;28;20184;-68
2022/10/16 07:55:35;;;;;;;4.43;2.38;;;;;;;;;;5036115;28;20665;-68
2022/10/16 07:58:01;;;;;;;4.95;2.00;;;;;;;;;;5038034;28;20208;-67
2022/10/16 08:00:26;;;;;;;4.43;2.17;;;;;;;;;;5039256;28;20605;-68
2022/10/16 08:02:51;;;;;;;5.05;2.17;;;;;;;;;;5037823;28;20220;-67
2022/10/16 08:05:17;;;;;;;3.30;1.80;;;;;;;;;;5031732;28;20208;-67
2022/10/16 08:07:42;;;;;;;4.63;2.00;;;;;;;;;;5030843;28;20209;-67
2022/10/16 08:10:16;;;;;;;6.90;2.28;;;;;;;;;;5033844;28;20189;-67
2022/10/16 08:12:42;;;;;;;5.28;2.30;;;;;;;;;;5033571;28;20243;-67
2022/10/16 08:15:08;;;;;;;5.90;2.20;;;;;;;;;;5031839;28;20178;-67
2022/10/16 08:17:33;;;;;;;4.53;2.33;;;;;;;;;;5028828;28;20239;-67
2022/10/16 08:19:58;;;;;;;7.63;2.33;;;;;;;;;;5028402;28;20186;-67
2022/10/16 08:22:24;;;;;;;6.80;2.30;;;;;;;;;;5032192;28;20534;-68
2022/10/16 08:24:49;;;;;;;3.88;2.20;;;;;;;;;;5030267;28;20633;-68
2022/10/16 08:27:14;;;;;;;4.32;2.03;;;;;;;;;;5037730;28;20652;-67
2022/10/16 08:29:40;;;;;;;5.82;2.03;;;;;;;;;;5031958;28;20178;-67
2022/10/16 08:32:05;;;;;;;7.30;2.20;;;;;;;;;;5023755;28;217556;-68
2022/10/16 08:34:30;;;;;;;7.15;2.05;;;;;;;;;;5034093;28;20653;-67
2022/10/16 08:36:56;;;;;;;5.75;1.98;;;;;;;;;;5028415;28;20545;-70
2022/10/16 08:39:21;;;;;;;5.63;2.05;;;;;;;;;;5031018;28;20260;-68
2022/10/16 08:42:04;;;;;;;6.15;1.90;;;;;;;;;;5031797;28;21731;-67
2022/10/16 08:44:43;;;;;;;5.95;2.05;;;;;;;;;;5031305;28;20195;-67
2022/10/16 08:47:22;;;;;;;5.68;1.95;;;;;;;;;;5036121;28;20488;-68
2022/10/16 08:49:59;;;;;;;8.75;2.45;;;;;;;;;;5029429;28;20657;-68
2022/10/16 08:52:35;;;;;;;4.38;1.80;;;;;;;;;;5033880;28;20219;-68
2022/10/16 08:55:01;;;;;;;4.80;1.80;;;;;;;;;;5037881;28;20178;-68
2022/10/16 08:57:27;;;;;;;5.40;2.40;;;;;;;;;;5028739;28;20186;-68
2022/10/16 08:59:55;;;;;;;11.23;2.53;;;;;;;;;;5036459;28;20167;-67
2022/10/16 09:02:26;;;;;;;3.38;2.05;;;;;;;;;;5038757;28;20174;-72
2022/10/16 09:05:16;;;;;;;5.63;2.10;;;;;;;;;;5028961;28;20237;-68
2022/10/16 09:07:55;;;;;;;5.25;2.25;;;;;;;;;;5037760;28;20637;-67
2022/10/16 09:10:26;;;;;;;6.65;2.22;;;;;;;;;;5034214;28;20597;-67
2022/10/16 09:13:09;;;;;;;3.95;2.05;;;;;;;;;;5038983;28;20264;-67
2022/10/16 09:15:53;;;;;;;6.68;2.08;;;;;;;;;;5043003;28;20182;-67
2022/10/16 09:18:41;;;;;;;6.05;2.30;;;;;;;;;;5035219;28;20271;-67
2022/10/16 09:21:23;;;;;;;2.53;1.95;;;;;;;;;;5037054;28;20193;-67
2022/10/16 09:23:50;;;;;;;9.77;2.53;;;;;;;;;;5040437;28;20366;-67
2022/10/16 09:26:17;;;;;;;5.22;2.10;;;;;;;;;;5043165;28;20338;-68
2022/10/16 09:28:43;;;;;;;4.35;2.55;;;;;;;;;;5042284;28;20199;-67
2022/10/16 09:31:20;;;;;;;7.00;2.60;;;;;;;;;;5030235;28;20631;-67
2022/10/16 09:33:50;;;;;;;5.22;2.78;;;;;;;;;;5040926;28;20216;-67
2022/10/16 09:36:16;;;;;;;7.68;2.78;;;;;;;;;;5041172;28;20192;-68
2022/10/16 09:38:41;;;;;;;6.15;2.72;;;;;;;;;;5042170;28;20205;-67
2022/10/16 09:41:19;;;;;;;10.88;2.85;;;;;;;;;;5038127;28;20232;-69
2022/10/16 09:43:54;;;;;;;5.65;2.20;;;;;;;;;;5037560;28;20188;-67
2022/10/16 09:46:34;;;;;;;8.43;2.47;;;;;;;;;;5048062;28;20231;-67
2022/10/16 09:49:04;;;;;;;6.13;2.00;;;;;;;;;;5031619;28;20210;-67
2022/10/16 09:51:35;;;;;;;7.57;2.28;;;;;;;;;;5046424;28;20649;-68
2022/10/16 09:54:13;;;;;;;6.28;2.45;;;;;;;;;;5036079;28;20239;-68
2022/10/16 09:56:39;;;;;;;3.45;1.92;;;;;;;;;;5039413;28;20221;-68
2022/10/16 09:59:19;;;;;;;4.45;2.13;;;;;;;;;;5030819;28;20265;-67
2022/10/16 10:01:46;;;;;;;11.18;2.72;;;;;;;;;;5031875;28;21018;-68
2022/10/16 10:04:12;;;;;;;10.85;2.70;;;;;;;;;;5030746;28;20173;-67
2022/10/16 10:06:42;;;;;;;8.45;2.38;;;;;;;;;;5032752;28;20197;-67
2022/10/16 10:09:27;;;;;;;8.80;2.30;;;;;;;;;;5043198;28;20194;-68
2022/10/16 10:11:55;;;;;;;11.30;2.50;;;;;;;;;;5046994;28;20231;-67
2022/10/16 10:14:30;;;;;;;6.78;2.33;;;;;;;;;;5032375;28;21383;-68
2022/10/16 10:17:04;;;;;;;4.78;2.38;;;;;;;;;;5030495;28;20624;-68
2022/10/16 10:19:37;;;;;;;5.93;1.92;;;;;;;;;;5038556;28;20177;-68
2022/10/16 10:22:19;;;;;;;6.55;2.30;;;;;;;;;;5050213;28;20911;-68
2022/10/16 10:24:54;;;;;;;7.63;2.47;;;;;;;;;;5049854;28;20238;-67
2022/10/16 10:27:23;;;;;;;8.13;2.10;;;;;;;;;;5040963;28;20186;-74
2022/10/16 10:30:10;;;;;;;6.65;2.20;;;;;;;;;;5043588;28;20181;-70
2022/10/16 10:32:52;;;;;;;5.00;1.95;;;;;;;;;;5030687;28;20780;-67
2022/10/16 10:35:40;;;;;;;10.80;2.13;;;;;;;;;;5046292;28;20186;-68
2022/10/16 10:38:15;;;;;;;7.03;2.28;;;;;;;;;;5037784;28;20185;-68
2022/10/16 10:41:32;;;;;;;10.02;2.17;;;;;;;;;;5028100;28;20180;-69
2022/10/16 10:44:16;;;;;;;7.43;1.63;;;;;;;;;;5015566;28;20209;-68
2022/10/16 10:46:50;;;;;;;8.55;2.67;;;;;;;;;;5044069;28;20653;-68
2022/10/16 10:49:34;;;;;;;9.52;2.20;;;;;;;;;;5035193;28;20278;-67
2022/10/16 10:52:29;;;;;;;7.32;1.90;;;;;;;;;;5033068;28;20190;-68
2022/10/16 10:55:25;;;;;;;9.40;2.42;;;;;;;;;;5031647;28;20178;-68
2022/10/16 10:58:17;;;;;;;11.70;1.95;;;;;;;;;;5031993;28;20204;-68
2022/10/16 11:00:54;;;;;;;8.82;1.70;;;;;;;;;;5035940;28;20186;-68
2022/10/16 11:03:37;;;;;;;6.72;1.45;;;;;;;;;;5035149;28;20181;-68
2022/10/16 11:06:17;;;;;;;14.32;1.85;;;;;;;;;;5033032;28;20510;-74
2022/10/16 11:08:52;;;;;;;12.80;2.28;;;;;;;;;;5038671;28;20283;-68
2022/10/16 11:11:25;;;;;;;8.82;1.90;;;;;;;;;;5042866;28;20180;-68
2022/10/16 11:13:50;;;;;;;7.35;1.58;;;;;;;;;;5047464;28;20238;-68
2022/10/16 11:16:28;;;;;;;11.57;1.92;;;;;;;;;;5040005;28;20701;-68
2022/10/16 11:19:10;;;;;;;13.20;2.15;;;;;;;;;;5040985;28;20226;-68
2022/10/16 11:21:48;;;;;;;10.73;2.22;;;;;;;;;;5039271;28;20184;-68
2022/10/16 11:24:23;;;;;;;11.27;2.20;;;;;;;;;;5034684;28;20268;-69
2022/10/16 11:26:51;;;;;;;8.35;1.80;;;;;;;;;;5042016;28;20177;-69
2022/10/16 11:29:23;;;;;;;10.85;2.28;;;;;;;;;;5038562;28;20193;-68
2022/10/16 11:31:54;;;;;;;8.80;1.75;;;;;;;;;;5037547;28;20237;-69
2022/10/16 11:34:35;;;;;;;6.88;1.50;;;;;;;;;;5043148;28;20190;-69
2022/10/16 11:37:21;;;;;;;9.55;1.70;;;;;;;;;;5032988;28;20184;-68
2022/10/16 11:39:48;;;;;;;10.32;1.83;;;;;;;;;;5041816;28;20197;-69
2022/10/16 11:42:21;;;;;;;9.43;2.35;;;;;;;;;;5038299;28;20182;-68
2022/10/16 11:45:25;;;;;;;11.10;2.00;;;;;;;;;;5035170;28;20185;-69
2022/10/16 11:48:08;;;;;;;10.68;2.17;;;;;;;;;;5020805;28;20283;-68
2022/10/16 11:50:37;;;;;;;11.32;1.83;;;;;;;;;;5015811;28;20187;-68
2022/10/16 11:53:16;;;;;;;10.18;1.42;;;;;;;;;;5025494;28;20198;-68
2022/10/16 11:55:44;;;;;;;8.07;1.88;;;;;;;;;;5037628;28;20595;-68
2022/10/16 11:58:25;;;;;;;9.45;1.58;;;;;;;;;;5034036;28;20241;-68
2022/10/16 12:00:57;;;;;;;12.00;1.70;;;;;;;;;;5033055;28;20271;-68
2022/10/16 12:03:30;;;;;;;10.23;1.70;;;;;;;;;;5030810;28;20493;-67
2022/10/16 12:06:01;;;;;;;9.23;1.63;;;;;;;;;;5032848;28;20186;-67
2022/10/16 12:08:27;;;;;;;10.25;2.03;;;;;;;;;;5031109;28;20198;-68
2022/10/16 12:10:55;;;;;;;14.50;1.88;;;;;;;;;;5037407;28;20260;-68
2022/10/16 12:13:38;;;;;;;8.07;1.50;;;;;;;;;;5038557;28;20184;-68
2022/10/16 12:16:24;;;;;;;7.75;1.30;;;;;;;;;;5031363;28;20197;-67
2022/10/16 12:19:09;;;;;;;7.50;1.67;;;;;;;;;;5039900;28;21085;-68
2022/10/16 12:21:34;;;;;;;11.98;1.45;;;;;;;;;;5041872;28;20264;-69
2022/10/16 12:24:04;;;;;;;7.35;1.48;;;;;;;;;;5033175;28;20271;-68
2022/10/16 12:26:32;;;;;;;6.97;1.60;;;;;;;;;;5044619;28;20594;-68
2022/10/16 12:29:30;;;;;;;6.07;1.50;;;;;;;;;;4337695;28;10000741;-71
2022/10/16 12:31:56;;;;;;;5.50;1.45;;;;;;;;;;5028620;28;20741;-68
2022/10/16 12:34:23;;;;;;;7.55;1.60;;;;;;;;;;5036860;28;20185;-68
2022/10/16 12:36:49;;;;;;;7.82;1.88;;;;;;;;;;5036981;28;20213;-69
2022/10/16 12:39:25;;;;;;;7.25;1.50;;;;;;;;;;5030942;28;20215;-67
2022/10/16 12:42:25;;;;;;;12.55;2.40;;;;;;;;;;5033726;28;20178;-68
2022/10/16 12:44:50;;;;;;;11.50;1.60;;;;;;;;;;5024006;28;20919;-68
2022/10/16 12:47:24;;;;;;;9.02;1.88;;;;;;;;;;5039699;28;20204;-69
2022/10/16 12:49:53;;;;;;;8.23;1.83;;;;;;;;;;5034406;28;20661;-67
2022/10/16 12:52:33;;;;;;;7.60;1.73;;;;;;;;;;5030610;28;20182;-68
2022/10/16 12:55:00;;;;;;;10.65;1.92;;;;;;;;;;5036753;28;20553;-68
2022/10/16 12:57:39;;;;;;;10.27;1.92;;;;;;;;;;5034110;28;20235;-68
2022/10/16 13:00:20;;;;;;;6.55;1.65;;;;;;;;;;5037322;28;20224;-68
2022/10/16 13:03:01;;;;;;;8.55;1.67;;;;;;;;;;5037334;28;20181;-69
2022/10/16 13:05:42;;;;;;;10.05;1.70;;;;;;;;;;5035732;28;20561;-68
2022/10/16 13:08:26;;;;;;;5.28;1.77;;;;;;;;;;5037725;28;20674;-68
2022/10/16 13:11:20;;;;;;;7.03;1.60;;;;;;;;;;5032086;28;20208;-68
2022/10/16 13:14:25;;;;;;;7.40;1.65;;;;;;;;;;5042354;28;20173;-68
2022/10/16 13:17:14;;;;;;;10.45;1.80;;;;;;;;;;5036391;28;20211;-68
2022/10/16 13:20:03;;;;;;;6.88;1.65;;;;;;;;;;5034440;28;20201;-68
2022/10/16 13:22:53;;;;;;;7.78;1.23;;;;;;;;;;5040148;28;20682;-68
2022/10/16 13:25:36;;;;;;;10.45;1.63;;;;;;;;;;5034683;28;20177;-68
2022/10/16 13:28:05;;;;;;;9.35;1.60;;;;;;;;;;5040769;28;20638;-68
2022/10/16 13:30:52;;;;;;;11.38;1.92;;;;;;;;;;5030274;28;20205;-68
2022/10/16 13:33:47;;;;;;;9.13;1.67;;;;;;;;;;5033695;28;20506;-68
2022/10/16 13:36:26;;;;;;;10.02;1.70;;;;;;;;;;5034991;28;20208;-68
2022/10/16 13:39:03;;;;;;;10.57;1.73;;;;;;;;;;5036677;28;20178;-68
2022/10/16 13:41:29;;;;;;;7.38;1.70;;;;;;;;;;5036895;28;20264;-69
2022/10/16 13:43:56;;;;;;;7.03;1.10;;;;;;;;;;5027806;28;20273;-68
2022/10/16 13:46:23;;;;;;;10.77;2.10;;;;;;;;;;5036007;28;20182;-68
2022/10/16 13:49:02;;;;;;;9.85;1.52;;;;;;;;;;5034462;28;20202;-68
2022/10/16 13:51:28;;;;;;;7.95;1.50;;;;;;;;;;5041274;28;20189;-68
2022/10/16 13:53:56;;;;;;;10.38;1.70;;;;;;;;;;5036215;28;20661;-68
2022/10/16 13:56:25;;;;;;;10.77;1.90;;;;;;;;;;5029885;28;20269;-68
2022/10/16 13:59:03;;;;;;;10.05;1.70;;;;;;;;;;5040590;28;20228;-72
2022/10/16 14:01:51;;;;;;;9.35;1.98;;;;;;;;;;5034039;28;20606;-68
2022/10/16 14:04:17;;;;;;;9.25;1.50;;;;;;;;;;5038363;28;20178;-68
2022/10/16 14:06:44;;;;;;;8.10;1.42;;;;;;;;;;5038201;28;20185;-68
2022/10/16 14:09:28;;;;;;;10.85;1.80;;;;;;;;;;5037401;28;20680;-68
2022/10/16 14:12:03;;;;;;;9.57;1.73;;;;;;;;;;5032267;28;20212;-68
2022/10/16 14:14:35;;;;;;;13.73;2.15;;;;;;;;;;5036541;28;20187;-68
2022/10/16 14:17:02;;;;;;;7.30;1.90;;;;;;;;;;5041618;28;20185;-68
2022/10/16 14:19:29;;;;;;;11.10;1.88;;;;;;;;;;5036710;28;20257;-68
2022/10/16 14:21:55;;;;;;;11.45;1.80;;;;;;;;;;5041246;28;20181;-68
2022/10/16 14:24:33;;;;;;;8.13;1.60;;;;;;;;;;5034122;28;20196;-68
2022/10/16 14:26:59;;;;;;;9.60;1.88;;;;;;;;;;5046052;28;20181;-68
2022/10/16 14:29:26;;;;;;;12.60;1.92;;;;;;;;;;5039584;28;20216;-68
2022/10/16 14:32:03;;;;;;;7.85;1.60;;;;;;;;;;5036321;28;20240;-68
2022/10/16 14:34:34;;;;;;;7.63;1.50;;;;;;;;;;5026756;28;20189;-68
2022/10/16 14:37:07;;;;;;;5.80;1.77;;;;;;;;;;5036598;28;20726;-68
2022/10/16 14:39:33;;;;;;;9.55;1.75;;;;;;;;;;5040857;28;20219;-69
2022/10/16 14:41:58;;;;;;;6.20;1.42;;;;;;;;;;5039250;28;20727;-68
2022/10/16 14:44:29;;;;;;;8.15;1.80;;;;;;;;;;5039952;28;20216;-68
2022/10/16 14:46:55;;;;;;;12.05;2.35;;;;;;;;;;5033763;28;20832;-68
2022/10/16 14:49:23;;;;;;;5.28;1.73;;;;;;;;;;5033569;28;20209;-68
2022/10/16 14:51:48;;;;;;;9.02;1.80;;;;;;;;;;5042283;28;20200;-69
2022/10/16 14:54:16;;;;;;;11.50;2.35;;;;;;;;;;5039030;28;20181;-68
2022/10/16 14:56:46;;;;;;;9.45;1.90;;;;;;;;;;5030116;28;20185;-68
2022/10/16 14:59:16;;;;;;;8.50;1.65;;;;;;;;;;5041565;28;20288;-68
2022/10/16 15:01:46;;;;;;;6.60;1.40;;;;;;;;;;5037437;28;20193;-68
2022/10/16 15:04:12;;;;;;;8.57;1.55;;;;;;;;;;5036669;28;20186;-68